createdAt,value
2018-09-16T00:00:26.731Z,1020.63
2018-09-16T00:01:36.404Z,1020.66
2018-09-16T00:02:45.813Z,1020.62
2018-09-16T00:03:54.976Z,1020.67
2018-09-16T00:05:03.890Z,1020.62
2018-09-16T00:06:13.506Z,1020.62
2018-09-16T00:07:22.665Z,1020.58
2018-09-16T00:08:31.823Z,1020.58
2018-09-16T00:09:41.496Z,1020.57
2018-09-16T00:10:50.653Z,1020.55
2018-09-16T00:11:59.817Z,1020.55
2018-09-16T00:13:08.994Z,1020.51
2018-09-16T00:14:18.153Z,1020.51
2018-09-16T00:15:27.747Z,1020.54
2018-09-16T00:16:37.672Z,1020.53
2018-09-16T00:17:47.604Z,1020.52
2018-09-16T00:18:57.021Z,1020.45
2018-09-16T00:20:06.863Z,1020.44
2018-09-16T00:21:16.294Z,1020.46
2018-09-16T00:22:25.504Z,1020.49
2018-09-16T00:23:34.922Z,1020.44
2018-09-16T00:24:44.590Z,1020.49
2018-09-16T00:25:53.999Z,1020.47
2018-09-16T00:27:03.682Z,1020.46
2018-09-16T00:28:13.625Z,1020.47
2018-09-16T00:29:22.779Z,1020.48
2018-09-16T00:30:31.928Z,1020.47
2018-09-16T00:31:41.370Z,1020.42
2018-09-16T00:32:50.532Z,1020.43
2018-09-16T00:34:00.468Z,1020.4
2018-09-16T00:35:09.637Z,1020.43
2018-09-16T00:36:19.324Z,1020.43
2018-09-16T00:37:27.989Z,1020.46
2018-09-16T00:38:37.683Z,1020.46
2018-09-16T00:39:47.111Z,1020.45
2018-09-16T00:40:56.525Z,1020.5
2018-09-16T00:42:06.200Z,1020.43
2018-09-16T00:43:15.627Z,1020.44
2018-09-16T00:44:24.785Z,1020.41
2018-09-16T00:45:34.478Z,1020.42
2018-09-16T00:46:43.890Z,1020.39
2018-09-16T00:47:53.063Z,1020.35
2018-09-16T00:49:02.220Z,1020.37
2018-09-16T00:50:11.375Z,1020.38
2018-09-16T00:51:20.782Z,1020.36
2018-09-16T00:52:29.948Z,1020.35
2018-09-16T00:53:39.104Z,1020.32
2018-09-16T00:54:48.783Z,1020.32
2018-09-16T00:55:57.945Z,1020.29
2018-09-16T00:57:07.109Z,1020.26
2018-09-16T00:58:16.809Z,1020.27
2018-09-16T00:59:26.493Z,1020.25
2018-09-16T01:00:36.161Z,1020.26
2018-09-16T01:01:45.581Z,1020.24
2018-09-16T01:02:55.254Z,1020.23
2018-09-16T01:04:05.203Z,1020.25
2018-09-16T01:05:14.869Z,1020.24
2018-09-16T01:06:24.025Z,1020.23
2018-09-16T01:07:33.705Z,1020.24
2018-09-16T01:08:43.380Z,1020.23
2018-09-16T01:09:52.293Z,1020.19
2018-09-16T01:11:01.193Z,1020.19
2018-09-16T01:12:10.107Z,1020.19
2018-09-16T01:13:19.798Z,1020.21
2018-09-16T01:14:28.958Z,1020.14
2018-09-16T01:15:38.118Z,1020.18
2018-09-16T01:16:47.547Z,1020.2
2018-09-16T01:17:57.222Z,1020.17
2018-09-16T01:19:06.395Z,1020.19
2018-09-16T01:20:16.088Z,1020.15
2018-09-16T01:21:25.509Z,1020.12
2018-09-16T01:22:34.676Z,1020.11
2018-09-16T01:23:44.109Z,1020.12
2018-09-16T01:24:53.269Z,1020.1
2018-09-16T01:26:02.701Z,1020.14
2018-09-16T01:27:12.549Z,1020.13
2018-09-16T01:28:22.229Z,1020.08
2018-09-16T01:29:31.644Z,1020.07
2018-09-16T01:30:41.066Z,1020.07
2018-09-16T01:31:50.501Z,1020.05
2018-09-16T01:33:00.186Z,1020.02
2018-09-16T01:34:09.596Z,1020.03
2018-09-16T01:35:19.555Z,1020
2018-09-16T01:36:29.235Z,1020.04
2018-09-16T01:37:38.404Z,1020.04
2018-09-16T01:38:48.104Z,1020.02
2018-09-16T01:39:58.032Z,1019.98
2018-09-16T01:41:07.203Z,1019.97
2018-09-16T01:42:16.926Z,1019.94
2018-09-16T01:43:26.600Z,1019.96
2018-09-16T01:44:36.279Z,1019.95
2018-09-16T01:45:45.708Z,1019.92
2018-09-16T01:46:54.875Z,1019.94
2018-09-16T01:48:03.541Z,1019.95
2018-09-16T01:49:13.474Z,1019.95
2018-09-16T01:50:22.154Z,1019.98
2018-09-16T01:51:31.849Z,1019.95
2018-09-16T01:52:41.014Z,1019.93
2018-09-16T01:53:50.192Z,1019.91
2018-09-16T01:54:59.361Z,1019.87
2018-09-16T01:56:08.522Z,1019.87
2018-09-16T01:57:17.954Z,1019.85
2018-09-16T01:58:27.378Z,1019.84
2018-09-16T01:59:36.811Z,1019.83
2018-09-16T02:00:46.246Z,1019.79
2018-09-16T02:01:55.420Z,1019.83
2018-09-16T02:03:04.848Z,1019.81
2018-09-16T02:04:14.272Z,1019.84
2018-09-16T02:05:23.441Z,1019.83
2018-09-16T02:06:32.988Z,1019.81
2018-09-16T02:07:42.664Z,1019.81
2018-09-16T02:08:52.077Z,1019.82
2018-09-16T02:10:01.506Z,1019.8
2018-09-16T02:11:11.178Z,1019.8
2018-09-16T02:12:20.626Z,1019.8
2018-09-16T02:13:29.779Z,1019.77
2018-09-16T02:14:38.935Z,1019.78
2018-09-16T02:15:48.110Z,1019.79
2018-09-16T02:16:57.515Z,1019.75
2018-09-16T02:18:06.932Z,1019.78
2018-09-16T02:19:16.102Z,1019.74
2018-09-16T02:20:25.007Z,1019.71
2018-09-16T02:21:34.456Z,1019.71
2018-09-16T02:22:43.879Z,1019.68
2018-09-16T02:23:53.329Z,1019.67
2018-09-16T02:25:02.566Z,1019.65
2018-09-16T02:26:11.835Z,1019.65
2018-09-16T02:27:20.825Z,1019.63
2018-09-16T02:28:29.978Z,1019.62
2018-09-16T02:29:39.407Z,1019.58
2018-09-16T02:30:48.853Z,1019.59
2018-09-16T02:31:58.542Z,1019.55
2018-09-16T02:33:07.974Z,1019.55
2018-09-16T02:34:17.390Z,1019.59
2018-09-16T02:35:26.575Z,1019.54
2018-09-16T02:36:35.988Z,1019.53
2018-09-16T02:37:45.418Z,1019.53
2018-09-16T02:38:54.582Z,1019.51
2018-09-16T02:40:03.759Z,1019.48
2018-09-16T02:41:13.184Z,1019.44
2018-09-16T02:42:23.202Z,1019.48
2018-09-16T02:43:32.710Z,1019.46
2018-09-16T02:44:41.900Z,1019.38
2018-09-16T02:45:51.336Z,1019.35
2018-09-16T02:47:00.505Z,1019.33
2018-09-16T02:48:09.420Z,1019.35
2018-09-16T02:49:18.837Z,1019.33
2018-09-16T02:50:28.029Z,1019.36
2018-09-16T02:51:37.991Z,1019.37
2018-09-16T02:52:47.846Z,1019.35
2018-09-16T02:53:57.779Z,1019.36
2018-09-16T02:55:07.210Z,1019.33
2018-09-16T02:56:16.887Z,1019.34
2018-09-16T02:57:25.795Z,1019.33
2018-09-16T02:58:34.955Z,1019.3
2018-09-16T02:59:44.676Z,1019.31
2018-09-16T03:00:53.837Z,1019.28
2018-09-16T03:02:03.010Z,1019.29
2018-09-16T03:03:12.483Z,1019.31
2018-09-16T03:04:22.186Z,1019.29
2018-09-16T03:05:31.100Z,1019.31
2018-09-16T03:06:40.272Z,1019.33
2018-09-16T03:07:49.189Z,1019.28
2018-09-16T03:08:58.869Z,1019.29
2018-09-16T03:10:08.813Z,1019.32
2018-09-16T03:11:18.487Z,1019.3
2018-09-16T03:12:28.507Z,1019.26
2018-09-16T03:13:38.434Z,1019.28
2018-09-16T03:14:47.616Z,1019.29
2018-09-16T03:15:57.547Z,1019.26
2018-09-16T03:17:06.984Z,1019.26
2018-09-16T03:18:16.148Z,1019.27
2018-09-16T03:19:25.835Z,1019.32
2018-09-16T03:20:35.770Z,1019.33
2018-09-16T03:21:45.710Z,1019.34
2018-09-16T03:22:55.139Z,1019.3
2018-09-16T03:24:04.295Z,1019.3
2018-09-16T03:25:13.779Z,1019.28
2018-09-16T03:26:22.434Z,1019.26
2018-09-16T03:27:32.121Z,1019.29
2018-09-16T03:28:41.553Z,1019.3
2018-09-16T03:29:50.976Z,1019.29
2018-09-16T03:30:59.861Z,1019.28
2018-09-16T03:32:09.313Z,1019.32
2018-09-16T03:33:19.008Z,1019.28
2018-09-16T03:34:28.439Z,1019.28
2018-09-16T03:35:37.895Z,1019.27
2018-09-16T03:36:47.842Z,1019.27
2018-09-16T03:37:57.531Z,1019.26
2018-09-16T03:39:07.023Z,1019.26
2018-09-16T03:40:16.182Z,1019.24
2018-09-16T03:41:25.606Z,1019.26
2018-09-16T03:42:35.039Z,1019.24
2018-09-16T03:43:44.464Z,1019.27
2018-09-16T03:44:53.624Z,1019.28
2018-09-16T03:46:02.779Z,1019.25
2018-09-16T03:47:12.205Z,1019.26
2018-09-16T03:48:21.685Z,1019.25
2018-09-16T03:49:31.136Z,1019.24
2018-09-16T03:50:40.366Z,1019.26
2018-09-16T03:51:50.250Z,1019.24
2018-09-16T03:52:59.418Z,1019.27
2018-09-16T03:54:09.365Z,1019.24
2018-09-16T03:55:18.530Z,1019.23
2018-09-16T03:56:27.701Z,1019.18
2018-09-16T03:57:56.337Z,1019.18
2018-09-16T03:59:06.025Z,1019.15
2018-09-16T04:00:14.933Z,1019.12
2018-09-16T04:01:24.621Z,1019.16
2018-09-16T04:02:33.518Z,1019.1
2018-09-16T04:03:42.750Z,1019.1
2018-09-16T04:04:52.420Z,1019.08
2018-09-16T04:06:01.850Z,1019.09
2018-09-16T04:07:11.041Z,1019.09
2018-09-16T04:08:20.719Z,1019.1
2018-09-16T04:09:30.131Z,1019.1
2018-09-16T04:10:39.039Z,1019.09
2018-09-16T04:11:48.979Z,1019.13
2018-09-16T04:12:58.914Z,1019.15
2018-09-16T04:14:08.336Z,1019.13
2018-09-16T04:15:17.782Z,1019.16
2018-09-16T04:16:27.477Z,1019.15
2018-09-16T04:17:37.162Z,1019.13
2018-09-16T04:18:46.594Z,1019.12
2018-09-16T04:19:56.529Z,1019.11
2018-09-16T04:21:06.036Z,1019.08
2018-09-16T04:22:16.657Z,1019.05
2018-09-16T04:23:26.092Z,1019.05
2018-09-16T04:24:35.518Z,1019.09
2018-09-16T04:25:44.944Z,1019.09
2018-09-16T04:26:54.376Z,1019.14
2018-09-16T04:28:03.576Z,1019.14
2018-09-16T04:29:13.067Z,1019.1
2018-09-16T04:30:22.507Z,1019.12
2018-09-16T04:31:31.916Z,1019.17
2018-09-16T04:32:41.849Z,1019.15
2018-09-16T04:33:51.267Z,1019.19
2018-09-16T04:35:00.705Z,1019.17
2018-09-16T04:36:10.179Z,1019.19
2018-09-16T04:37:19.605Z,1019.19
2018-09-16T04:38:29.072Z,1019.18
2018-09-16T04:39:38.509Z,1019.17
2018-09-16T04:40:47.698Z,1019.2
2018-09-16T04:41:57.378Z,1019.17
2018-09-16T04:43:06.795Z,1019.19
2018-09-16T04:44:16.737Z,1019.19
2018-09-16T04:45:26.168Z,1019.17
2018-09-16T04:46:35.336Z,1019.2
2018-09-16T04:47:44.255Z,1019.2
2018-09-16T04:48:53.154Z,1019.23
2018-09-16T04:50:02.921Z,1019.2
2018-09-16T04:51:12.282Z,1019.22
2018-09-16T04:52:21.711Z,1019.24
2018-09-16T04:53:30.873Z,1019.25
2018-09-16T04:54:40.306Z,1019.3
2018-09-16T04:55:49.218Z,1019.26
2018-09-16T04:56:58.646Z,1019.31
2018-09-16T04:58:07.829Z,1019.29
2018-09-16T04:59:17.243Z,1019.27
2018-09-16T05:00:25.905Z,1019.3
2018-09-16T05:01:35.598Z,1019.24
2018-09-16T05:02:44.510Z,1019.28
2018-09-16T05:03:53.677Z,1019.29
2018-09-16T05:05:03.615Z,1019.26
2018-09-16T05:06:12.786Z,1019.23
2018-09-16T05:07:21.958Z,1019.25
2018-09-16T05:08:30.629Z,1019.24
2018-09-16T05:09:40.302Z,1019.24
2018-09-16T05:10:49.729Z,1019.23
2018-09-16T05:11:58.911Z,1019.18
2018-09-16T05:13:08.338Z,1019.26
2018-09-16T05:14:17.767Z,1019.22
2018-09-16T05:15:26.923Z,1019.22
2018-09-16T05:16:36.605Z,1019.25
2018-09-16T05:17:45.765Z,1019.27
2018-09-16T05:18:55.432Z,1019.25
2018-09-16T05:20:04.605Z,1019.27
2018-09-16T05:21:14.281Z,1019.22
2018-09-16T05:22:23.981Z,1019.24
2018-09-16T05:23:33.263Z,1019.2
2018-09-16T05:24:42.960Z,1019.17
2018-09-16T05:25:51.860Z,1019.2
2018-09-16T05:27:01.546Z,1019.15
2018-09-16T05:28:11.026Z,1019.17
2018-09-16T05:29:20.710Z,1019.16
2018-09-16T05:30:30.126Z,1019.15
2018-09-16T05:31:38.777Z,1019.16
2018-09-16T05:32:47.952Z,1019.18
2018-09-16T05:33:57.446Z,1019.16
2018-09-16T05:35:06.643Z,1019.16
2018-09-16T05:36:16.572Z,1019.19
2018-09-16T05:37:25.219Z,1019.17
2018-09-16T05:38:34.391Z,1019.19
2018-09-16T05:39:43.030Z,1019.18
2018-09-16T05:40:52.457Z,1019.22
2018-09-16T05:42:01.928Z,1019.24
2018-09-16T05:43:11.415Z,1019.28
2018-09-16T05:44:21.348Z,1019.25
2018-09-16T05:45:30.774Z,1019.33
2018-09-16T05:46:39.419Z,1019.34
2018-09-16T05:47:48.856Z,1019.35
2018-09-16T05:48:58.261Z,1019.34
2018-09-16T05:50:07.943Z,1019.35
2018-09-16T05:51:17.117Z,1019.33
2018-09-16T05:52:25.764Z,1019.31
2018-09-16T05:53:35.667Z,1019.37
2018-09-16T05:54:45.248Z,1019.36
2018-09-16T05:55:54.658Z,1019.38
2018-09-16T05:57:03.813Z,1019.35
2018-09-16T05:58:13.749Z,1019.39
2018-09-16T05:59:23.444Z,1019.38
2018-09-16T06:00:32.883Z,1019.35
2018-09-16T06:01:42.563Z,1019.34
2018-09-16T06:02:51.726Z,1019.32
2018-09-16T06:04:01.576Z,1019.33
2018-09-16T06:05:11.579Z,1019.34
2018-09-16T06:06:20.682Z,1019.36
2018-09-16T06:07:30.092Z,1019.37
2018-09-16T06:08:39.506Z,1019.39
2018-09-16T06:09:48.716Z,1019.4
2018-09-16T06:10:57.511Z,1019.41
2018-09-16T06:12:07.572Z,1019.44
2018-09-16T06:13:17.001Z,1019.48
2018-09-16T06:14:26.437Z,1019.49
2018-09-16T06:15:36.123Z,1019.46
2018-09-16T06:16:45.543Z,1019.5
2018-09-16T06:17:55.011Z,1019.5
2018-09-16T06:19:04.177Z,1019.52
2018-09-16T06:20:13.852Z,1019.51
2018-09-16T06:21:23.278Z,1019.48
2018-09-16T06:22:32.439Z,1019.45
2018-09-16T06:23:42.697Z,1019.5
2018-09-16T06:24:51.879Z,1019.51
2018-09-16T06:26:01.298Z,1019.5
2018-09-16T06:27:10.725Z,1019.52
2018-09-16T06:28:19.625Z,1019.53
2018-09-16T06:29:29.298Z,1019.51
2018-09-16T06:30:38.200Z,1019.53
2018-09-16T06:31:47.621Z,1019.46
2018-09-16T06:32:57.288Z,1019.49
2018-09-16T06:34:06.209Z,1019.5
2018-09-16T06:35:15.640Z,1019.48
2018-09-16T06:36:25.107Z,1019.49
2018-09-16T06:37:34.286Z,1019.46
2018-09-16T06:38:43.510Z,1019.44
2018-09-16T06:39:53.182Z,1019.44
2018-09-16T06:41:02.333Z,1019.45
2018-09-16T06:42:11.808Z,1019.44
2018-09-16T06:43:21.008Z,1019.49
2018-09-16T06:44:29.861Z,1019.48
2018-09-16T06:45:39.022Z,1019.48
2018-09-16T06:46:48.438Z,1019.44
2018-09-16T06:47:57.603Z,1019.44
2018-09-16T06:49:06.254Z,1019.41
2018-09-16T06:50:15.666Z,1019.39
2018-09-16T06:51:24.823Z,1019.35
2018-09-16T06:52:33.722Z,1019.34
2018-09-16T06:53:43.135Z,1019.35
2018-09-16T06:54:52.291Z,1019.33
2018-09-16T06:56:01.460Z,1019.32
2018-09-16T06:57:11.141Z,1019.34
2018-09-16T06:58:20.569Z,1019.35
2018-09-16T06:59:29.992Z,1019.33
2018-09-16T07:00:39.486Z,1019.3
2018-09-16T07:01:49.649Z,1019.35
2018-09-16T07:02:58.819Z,1019.36
2018-09-16T07:04:07.994Z,1019.4
2018-09-16T07:05:17.430Z,1019.4
2018-09-16T07:06:26.594Z,1019.36
2018-09-16T07:07:35.777Z,1019.31
2018-09-16T07:08:45.458Z,1019.31
2018-09-16T07:09:54.111Z,1019.28
2018-09-16T07:11:03.296Z,1019.3
2018-09-16T07:12:13.628Z,1019.24
2018-09-16T07:13:23.321Z,1019.23
2018-09-16T07:14:32.832Z,1019.22
2018-09-16T07:15:42.405Z,1019.26
2018-09-16T07:16:51.056Z,1019.21
2018-09-16T07:18:00.548Z,1019.23
2018-09-16T07:19:09.517Z,1019.23
2018-09-16T07:20:19.480Z,1019.23
2018-09-16T07:21:28.973Z,1019.27
2018-09-16T07:22:38.142Z,1019.25
2018-09-16T07:23:47.189Z,1019.26
2018-09-16T07:24:56.862Z,1019.2
2018-09-16T07:26:06.277Z,1019.17
2018-09-16T07:27:15.746Z,1019.14
2018-09-16T07:28:25.464Z,1019.14
2018-09-16T07:29:35.125Z,1019.15
2018-09-16T07:30:44.809Z,1019.14
2018-09-16T07:31:54.503Z,1019.12
2018-09-16T07:33:04.472Z,1019.09
2018-09-16T07:34:14.847Z,1019.08
2018-09-16T07:35:24.314Z,1019.07
2018-09-16T07:36:34.285Z,1019.04
2018-09-16T07:37:43.202Z,1019.06
2018-09-16T07:38:52.686Z,1019.07
2018-09-16T07:40:02.112Z,1019.07
2018-09-16T07:41:11.262Z,1019.07
2018-09-16T07:42:20.435Z,1019.04
2018-09-16T07:43:29.590Z,1019.06
2018-09-16T07:44:39.035Z,1019.12
2018-09-16T07:45:48.443Z,1019.15
2018-09-16T07:46:57.606Z,1019.13
2018-09-16T07:48:06.781Z,1019.13
2018-09-16T07:49:16.470Z,1019.14
2018-09-16T07:50:26.148Z,1019.19
2018-09-16T07:51:35.570Z,1019.18
2018-09-16T07:52:45.019Z,1019.15
2018-09-16T07:53:54.609Z,1019.19
2018-09-16T07:55:03.771Z,1019.17
2018-09-16T07:56:12.976Z,1019.18
2018-09-16T07:57:21.875Z,1019.17
2018-09-16T07:58:31.038Z,1019.15
2018-09-16T07:59:40.445Z,1019.2
2018-09-16T08:00:49.869Z,1019.15
2018-09-16T08:01:59.551Z,1019.19
2018-09-16T08:03:09.229Z,1019.16
2018-09-16T08:04:18.147Z,1019.16
2018-09-16T08:05:27.871Z,1019.21
2018-09-16T08:06:37.852Z,1019.22
2018-09-16T08:07:46.763Z,1019.22
2018-09-16T08:08:55.928Z,1019.21
2018-09-16T08:10:05.682Z,1019.23
2018-09-16T08:11:15.118Z,1019.23
2018-09-16T08:12:24.291Z,1019.22
2018-09-16T08:13:34.013Z,1019.26
2018-09-16T08:14:44.278Z,1019.22
2018-09-16T08:15:53.704Z,1019.24
2018-09-16T08:17:02.860Z,1019.27
2018-09-16T08:18:11.764Z,1019.23
2018-09-16T08:19:20.404Z,1019.24
2018-09-16T08:20:29.312Z,1019.25
2018-09-16T08:21:39.258Z,1019.25
2018-09-16T08:22:48.418Z,1019.3
2018-09-16T08:23:58.105Z,1019.28
2018-09-16T08:25:07.277Z,1019.32
2018-09-16T08:26:16.432Z,1019.29
2018-09-16T08:27:25.838Z,1019.26
2018-09-16T08:28:35.323Z,1019.31
2018-09-16T08:29:44.529Z,1019.3
2018-09-16T08:30:53.951Z,1019.33
2018-09-16T08:32:03.372Z,1019.33
2018-09-16T08:33:12.795Z,1019.38
2018-09-16T08:34:21.488Z,1019.39
2018-09-16T08:35:30.648Z,1019.38
2018-09-16T08:36:40.317Z,1019.4
2018-09-16T08:37:49.737Z,1019.38
2018-09-16T08:38:59.727Z,1019.36
2018-09-16T08:40:08.885Z,1019.31
2018-09-16T08:41:18.035Z,1019.33
2018-09-16T08:42:27.183Z,1019.3
2018-09-16T08:43:36.591Z,1019.28
2018-09-16T08:44:45.757Z,1019.28
2018-09-16T08:45:54.921Z,1019.26
2018-09-16T08:47:04.591Z,1019.27
2018-09-16T08:48:13.510Z,1019.25
2018-09-16T08:49:22.714Z,1019.23
2018-09-16T08:50:31.899Z,1019.25
2018-09-16T08:51:41.367Z,1019.25
2018-09-16T08:52:50.840Z,1019.25
2018-09-16T08:54:00.579Z,1019.21
2018-09-16T08:55:10.319Z,1019.22
2018-09-16T08:56:19.266Z,1019.21
2018-09-16T08:57:29.024Z,1019.21
2018-09-16T08:58:38.539Z,1019.21
2018-09-16T08:59:48.241Z,1019.22
2018-09-16T09:00:57.445Z,1019.19
2018-09-16T09:02:06.728Z,1019.21
2018-09-16T09:03:16.181Z,1019.13
2018-09-16T09:04:25.853Z,1019.11
2018-09-16T09:05:35.679Z,1019.1
2018-09-16T09:06:45.520Z,1019.11
2018-09-16T09:07:54.717Z,1019.1
2018-09-16T09:09:03.368Z,1019.11
2018-09-16T09:10:13.243Z,1019.12
2018-09-16T09:11:22.933Z,1019.13
2018-09-16T09:12:32.620Z,1019.16
2018-09-16T09:13:42.312Z,1019.13
2018-09-16T09:14:51.756Z,1019.16
2018-09-16T09:16:01.429Z,1019.17
2018-09-16T09:17:10.840Z,1019.13
2018-09-16T09:18:20.301Z,1019.11
2018-09-16T09:19:29.483Z,1019.09
2018-09-16T09:20:38.901Z,1019.05
2018-09-16T09:21:47.650Z,1019.07
2018-09-16T09:22:57.336Z,1019.03
2018-09-16T09:24:06.505Z,1019.02
2018-09-16T09:25:15.410Z,1019.02
2018-09-16T09:26:24.569Z,1019.03
2018-09-16T09:27:33.976Z,1019.01
2018-09-16T09:28:43.448Z,1019.01
2018-09-16T09:29:53.434Z,1018.99
2018-09-16T09:31:02.679Z,1018.98
2018-09-16T09:32:11.654Z,1018.96
2018-09-16T09:33:21.168Z,1018.98
2018-09-16T09:34:30.687Z,1018.94
2018-09-16T09:35:39.925Z,1018.96
2018-09-16T09:36:50.185Z,1018.93
2018-09-16T09:37:59.950Z,1018.89
2018-09-16T09:39:09.849Z,1018.89
2018-09-16T09:40:19.030Z,1018.87
2018-09-16T09:41:28.270Z,1018.88
2018-09-16T09:42:37.554Z,1018.87
2018-09-16T09:43:47.148Z,1018.89
2018-09-16T09:44:56.099Z,1018.88
2018-09-16T09:46:05.328Z,1018.9
2018-09-16T09:47:15.100Z,1018.87
2018-09-16T09:48:24.812Z,1018.85
2018-09-16T09:49:34.060Z,1018.83
2018-09-16T09:50:43.818Z,1018.89
2018-09-16T09:51:53.161Z,1018.88
2018-09-16T09:53:01.905Z,1018.85
2018-09-16T09:54:11.132Z,1018.87
2018-09-16T09:55:20.429Z,1018.84
2018-09-16T09:56:30.235Z,1018.82
2018-09-16T09:57:39.734Z,1018.8
2018-09-16T09:58:49.529Z,1018.79
2018-09-16T09:59:59.246Z,1018.78
2018-09-16T10:01:08.212Z,1018.72
2018-09-16T10:02:17.475Z,1018.73
2018-09-16T10:03:26.732Z,1018.68
2018-09-16T10:04:36.003Z,1018.67
2018-09-16T10:05:45.514Z,1018.64
2018-09-16T10:06:54.762Z,1018.65
2018-09-16T10:08:04.019Z,1018.69
2018-09-16T10:09:14.037Z,1018.65
2018-09-16T10:10:23.894Z,1018.63
2018-09-16T10:11:33.979Z,1018.64
2018-09-16T10:12:42.977Z,1018.6
2018-09-16T10:13:52.045Z,1018.6
2018-09-16T10:15:01.372Z,1018.56
2018-09-16T10:16:10.066Z,1018.62
2018-09-16T10:17:19.011Z,1018.5
2018-09-16T10:18:28.717Z,1018.48
2018-09-16T10:19:38.211Z,1018.42
2018-09-16T10:20:47.661Z,1018.4
2018-09-16T10:21:56.881Z,1018.39
2018-09-16T10:23:06.429Z,1018.35
2018-09-16T10:24:16.413Z,1018.33
2018-09-16T10:25:26.364Z,1018.34
2018-09-16T10:26:36.352Z,1018.32
2018-09-16T10:27:45.302Z,1018.3
2018-09-16T10:28:55.049Z,1018.3
2018-09-16T10:30:04.291Z,1018.28
2018-09-16T10:31:13.759Z,1018.27
2018-09-16T10:32:22.988Z,1018.27
2018-09-16T10:33:32.224Z,1018.27
2018-09-16T10:34:41.137Z,1018.27
2018-09-16T10:35:50.562Z,1018.27
2018-09-16T10:36:59.996Z,1018.18
2018-09-16T10:38:09.463Z,1018.15
2018-09-16T10:39:19.516Z,1018.16
2018-09-16T10:40:28.642Z,1018.12
2018-09-16T10:41:38.372Z,1018.09
2018-09-16T10:42:48.361Z,1018.1
2018-09-16T10:43:57.832Z,1018.13
2018-09-16T10:45:06.754Z,1018.08
2018-09-16T10:46:15.947Z,1018.05
2018-09-16T10:47:24.890Z,1018.08
2018-09-16T10:48:34.590Z,1018.05
2018-09-16T10:49:43.781Z,1018.02
2018-09-16T10:50:52.972Z,1018.02
2018-09-16T10:52:02.159Z,1018
2018-09-16T10:53:11.489Z,1017.93
2018-09-16T10:54:21.002Z,1017.93
2018-09-16T10:55:30.477Z,1017.88
2018-09-16T10:56:39.468Z,1017.86
2018-09-16T10:57:48.941Z,1017.86
2018-09-16T10:58:58.165Z,1017.79
2018-09-16T11:00:06.908Z,1017.78
2018-09-16T11:01:16.690Z,1017.78
2018-09-16T11:02:26.423Z,1017.79
2018-09-16T11:03:35.605Z,1017.78
2018-09-16T11:04:44.815Z,1017.79
2018-09-16T11:05:54.249Z,1017.77
2018-09-16T11:07:03.420Z,1017.78
2018-09-16T11:08:12.872Z,1017.72
2018-09-16T11:09:22.483Z,1017.7
2018-09-16T11:10:31.665Z,1017.69
2018-09-16T11:11:40.563Z,1017.69
2018-09-16T11:12:49.995Z,1017.66
2018-09-16T11:13:59.688Z,1017.65
2018-09-16T11:15:08.863Z,1017.66
2018-09-16T11:16:18.555Z,1017.6
2018-09-16T11:17:28.272Z,1017.61
2018-09-16T11:18:37.439Z,1017.62
2018-09-16T11:19:47.128Z,1017.62
2018-09-16T11:20:56.826Z,1017.6
2018-09-16T11:22:06.300Z,1017.57
2018-09-16T11:23:16.113Z,1017.61
2018-09-16T11:24:25.551Z,1017.61
2018-09-16T11:25:35.491Z,1017.56
2018-09-16T11:26:44.670Z,1017.57
2018-09-16T11:27:53.604Z,1017.57
2018-09-16T11:29:03.311Z,1017.53
2018-09-16T11:30:12.791Z,1017.56
2018-09-16T11:31:22.543Z,1017.53
2018-09-16T11:32:31.490Z,1017.52
2018-09-16T11:33:40.671Z,1017.51
2018-09-16T11:34:49.847Z,1017.48
2018-09-16T11:35:59.162Z,1017.48
2018-09-16T11:37:08.362Z,1017.42
2018-09-16T11:38:17.580Z,1017.45
2018-09-16T11:39:27.714Z,1017.44
2018-09-16T11:40:37.384Z,1017.44
2018-09-16T11:41:47.074Z,1017.41
2018-09-16T11:42:56.282Z,1017.37
2018-09-16T11:44:05.988Z,1017.34
2018-09-16T11:45:14.949Z,1017.33
2018-09-16T11:46:23.850Z,1017.32
2018-09-16T11:47:33.777Z,1017.3
2018-09-16T11:48:43.197Z,1017.3
2018-09-16T11:49:52.874Z,1017.28
2018-09-16T11:51:01.520Z,1017.27
2018-09-16T11:52:10.958Z,1017.24
2018-09-16T11:53:20.120Z,1017.26
2018-09-16T11:54:29.540Z,1017.18
2018-09-16T11:55:38.705Z,1017.19
2018-09-16T11:56:48.129Z,1017.24
2018-09-16T11:57:57.561Z,1017.21
2018-09-16T11:59:06.982Z,1017.22
2018-09-16T12:00:16.455Z,1017.22
2018-09-16T12:01:25.872Z,1017.19
2018-09-16T12:02:35.028Z,1017.17
2018-09-16T12:03:43.678Z,1017.14
2018-09-16T12:04:53.116Z,1017.14
2018-09-16T12:06:01.765Z,1017.1
2018-09-16T12:07:11.441Z,1017.13
2018-09-16T12:08:21.132Z,1017.11
2018-09-16T12:09:30.799Z,1017.09
2018-09-16T12:10:39.715Z,1017.06
2018-09-16T12:11:48.935Z,1017.08
